General Aviation Weather

Text Reports

Enter one or more of the following location identifiers separated by a space:

Zip Code, Four-Character ICAO or Three-Character IATA airport codes.

METAR - Aviation Routine Weather Report
KHTO - East Hampton, New York
Updated at 9:50 PM GMT on December 27, 2014 (4:50 PM EST):
METAR KHTO 272150Z VRB04KT 10SM SKC 07/04 A3020
TAF - Terminal Area Forecast
KHTO - East Hampton, New York
Updated at 9:50 PM GMT on December 27, 2014 (4:50 PM EST):
No TAF is currently available for this location.
Decoded:
No decoded TAF is available.
PIREP - Pilot Weather Report
KHTO - East Hampton, New York
Updated at 9:50 PM GMT on December 27, 2014 (4:50 PM EST):
No PIREP is currently available for this location.
AIRMET - Airmens Meteorological Information
KHTO - East Hampton, New York
Updated at 9:50 PM GMT on December 27, 2014 (4:50 PM EST):
No AIRMET is currently available for this location.
SIGMET - Significant Meteorological Information
KHTO - East Hampton, New York
Updated at 9:50 PM GMT on December 27, 2014 (4:50 PM EST):
No SIGMET is currently available for this location.
NOTAM - Notice to Airmen
KHTO - East Hampton, New York
Updated at 9:50 PM GMT on December 27, 2014 (4:50 PM EST):
No NOTAM is currently available for this location.
Forecast Area
KHTO - East Hampton, New York
Updated at 9:50 PM GMT on December 27, 2014 (4:50 PM EST):
No NOTAM is currently available for this location.
Aviation Weather Maps